Time;durP1;ratioP1;P1;durP2;ratioP2;P2;SDS_P1;SDS_P2;PMS_P1;PMS_P2;Temp;Humidity;BMP_temperature;BMP_pressure;BME280_temperature;BME280_humidity;BME280_pressure;Samples;Min_cycle;Max_cycle;Signal;HPM_P1;HPM_P2
2021/09/03 00:01:44;;;;;;;4.93;4.63;;;22.60;50.30;;;;;;5052004;28;20047;-85
2021/09/03 00:04:10;;;;;;;4.07;3.78;;;22.60;50.30;;;;;;5050828;28;20022;-84
2021/09/03 00:06:37;;;;;;;4.50;4.30;;;22.60;50.30;;;;;;5036739;28;20029;-86
2021/09/03 00:09:03;;;;;;;4.00;3.80;;;22.60;50.30;;;;;;5088528;28;20029;-86
2021/09/03 00:11:29;;;;;;;4.10;3.90;;;22.60;50.20;;;;;;5053553;28;20032;-85
2021/09/03 00:13:55;;;;;;;4.00;3.80;;;22.50;50.20;;;;;;5054609;28;20493;-85
2021/09/03 00:16:21;;;;;;;3.80;3.60;;;22.50;50.20;;;;;;5051897;28;20037;-86
2021/09/03 00:18:47;;;;;;;4.53;4.22;;;22.50;50.20;;;;;;5051755;28;20025;-86
2021/09/03 00:21:13;;;;;;;4.32;4.05;;;22.60;50.80;;;;;;5055883;28;20490;-85
2021/09/03 00:23:40;;;;;;;4.28;4.07;;;22.60;50.10;;;;;;5054826;28;20025;-85
2021/09/03 00:26:06;;;;;;;4.63;4.43;;;22.60;50.10;;;;;;5053573;28;20040;-85
2021/09/03 00:28:32;;;;;;;4.30;4.10;;;22.60;50.10;;;;;;5054546;28;20031;-86
2021/09/03 00:30:58;;;;;;;4.28;4.07;;;22.50;50.10;;;;;;5048808;28;20039;-85
2021/09/03 00:33:24;;;;;;;4.25;4.00;;;22.50;50.10;;;;;;5056511;28;20021;-86
2021/09/03 00:35:50;;;;;;;4.45;4.25;;;22.50;50.10;;;;;;5054523;28;20045;-87
2021/09/03 00:38:16;;;;;;;5.07;4.60;;;22.50;50.10;;;;;;5053478;28;20389;-86
2021/09/03 00:40:42;;;;;;;5.22;4.70;;;22.50;50.10;;;;;;5053213;28;20054;-86
2021/09/03 00:43:08;;;;;;;6.32;3.85;;;22.40;50.10;;;;;;5049598;28;20394;-85
2021/09/03 00:45:34;;;;;;;4.20;3.90;;;22.40;50.20;;;;;;5054144;28;20044;-86
2021/09/03 00:48:00;;;;;;;4.00;3.78;;;22.40;50.20;;;;;;5055191;28;20466;-86
2021/09/03 00:50:26;;;;;;;4.55;4.13;;;22.40;50.20;;;;;;5054630;28;20048;-86
2021/09/03 00:52:53;;;;;;;4.10;3.90;;;22.40;50.20;;;;;;5054641;28;20393;-86
2021/09/03 00:55:19;;;;;;;4.47;4.18;;;22.40;50.20;;;;;;5051546;28;20037;-86
2021/09/03 00:57:45;;;;;;;4.20;3.90;;;22.30;50.20;;;;;;5051415;28;20044;-85
2021/09/03 01:00:12;;;;;;;4.00;3.80;;;22.40;50.20;;;;;;5038314;28;20048;-86
2021/09/03 01:02:38;;;;;;;4.32;4.13;;;22.40;50.30;;;;;;5054598;28;20033;-86
2021/09/03 01:05:05;;;;;;;4.30;4.00;;;22.40;50.20;;;;;;5053292;28;20025;-86
2021/09/03 01:07:31;;;;;;;4.10;3.90;;;22.40;50.30;;;;;;5036763;28;20035;-86
2021/09/03 01:09:57;;;;;;;4.30;4.10;;;22.40;50.20;;;;;;5048999;28;20032;-86
2021/09/03 01:12:23;;;;;;;4.10;3.90;;;22.40;50.60;;;;;;5054739;28;20033;-85
2021/09/03 01:14:49;;;;;;;4.00;3.80;;;22.40;50.20;;;;;;5057111;28;20025;-86
2021/09/03 01:17:15;;;;;;;4.82;4.18;;;22.40;50.20;;;;;;5056547;28;20030;-83
2021/09/03 01:19:41;;;;;;;4.38;4.18;;;22.40;50.20;;;;;;5055684;28;20047;-86
2021/09/03 01:22:07;;;;;;;4.03;3.83;;;22.40;50.20;;;;;;5051950;28;20033;-86
2021/09/03 01:24:34;;;;;;;4.00;3.80;;;22.40;50.20;;;;;;5057039;28;20025;-86
2021/09/03 01:27:00;;;;;;;4.10;3.90;;;22.30;50.30;;;;;;5058551;28;20044;-85
2021/09/03 01:29:26;;;;;;;3.92;3.72;;;22.30;50.40;;;;;;5023846;28;20033;-86
2021/09/03 01:31:52;;;;;;;4.22;4.03;;;22.30;50.50;;;;;;5057425;28;20041;-85
2021/09/03 01:34:18;;;;;;;5.35;4.95;;;22.20;50.50;;;;;;5055907;28;20045;-85
2021/09/03 01:36:44;;;;;;;4.90;4.70;;;22.20;50.60;;;;;;5055104;28;20024;-86
2021/09/03 01:39:10;;;;;;;4.28;4.07;;;22.20;50.70;;;;;;5059802;28;20052;-86
2021/09/03 01:41:36;;;;;;;4.55;4.35;;;22.10;50.70;;;;;;5057292;28;20048;-85
2021/09/03 01:44:04;;;;;;;4.90;4.70;;;22.10;50.70;;;;;;5056591;28;20045;-85
2021/09/03 01:46:30;;;;;;;4.47;4.28;;;22.20;50.70;;;;;;5057172;28;20037;-86
2021/09/03 01:48:56;;;;;;;4.93;4.63;;;22.10;50.90;;;;;;5053371;28;20419;-86
2021/09/03 01:51:22;;;;;;;5.07;4.72;;;22.10;50.90;;;;;;5059734;28;20044;-85
2021/09/03 01:53:48;;;;;;;4.55;4.35;;;22.00;51.00;;;;;;5057572;28;20025;-86
2021/09/03 01:56:14;;;;;;;4.75;4.45;;;22.00;51.00;;;;;;5057299;28;20051;-86
2021/09/03 01:58:40;;;;;;;5.28;4.47;;;22.00;51.00;;;;;;5055859;28;20040;-86
2021/09/03 02:01:06;;;;;;;4.70;4.47;;;22.00;51.00;;;;;;5042521;28;20044;-86
2021/09/03 02:03:32;;;;;;;4.60;4.40;;;22.00;51.00;;;;;;5043780;28;20033;-86
2021/09/03 02:05:58;;;;;;;4.72;4.45;;;22.00;51.10;;;;;;5051065;28;20378;-84
2021/09/03 02:08:25;;;;;;;4.32;4.13;;;22.00;51.20;;;;;;5049411;28;20044;-87
2021/09/03 02:10:51;;;;;;;4.65;4.45;;;22.00;51.30;;;;;;5046620;28;20121;-85
2021/09/03 02:13:17;;;;;;;4.78;4.47;;;21.90;51.40;;;;;;5041923;28;20466;-86
2021/09/03 02:15:43;;;;;;;4.93;4.63;;;21.90;51.40;;;;;;5035014;28;20034;-85
2021/09/03 02:18:09;;;;;;;4.82;4.45;;;21.90;51.50;;;;;;5036236;28;20343;-84
2021/09/03 02:20:35;;;;;;;4.50;4.30;;;21.80;51.50;;;;;;5040054;28;20033;-85
2021/09/03 02:23:01;;;;;;;4.47;4.28;;;21.80;51.70;;;;;;5043606;28;20366;-85
2021/09/03 02:25:27;;;;;;;5.93;4.63;;;21.70;51.70;;;;;;5048867;28;20397;-85
2021/09/03 02:27:53;;;;;;;5.43;4.90;;;21.70;51.90;;;;;;5032913;28;20040;-85
2021/09/03 02:30:20;;;;;;;4.75;4.45;;;21.60;52.00;;;;;;5036827;28;20033;-85
2021/09/03 02:32:46;;;;;;;4.95;4.70;;;21.60;52.10;;;;;;5036242;28;20037;-84
2021/09/03 02:35:12;;;;;;;4.50;4.30;;;21.50;52.20;;;;;;5036436;28;20037;-86
2021/09/03 02:37:38;;;;;;;5.15;4.72;;;21.50;52.30;;;;;;5054373;28;20040;-86
2021/09/03 02:40:05;;;;;;;11.95;5.03;;;21.50;52.30;;;;;;5051005;28;20026;-86
2021/09/03 02:42:31;;;;;;;4.90;4.65;;;21.50;52.40;;;;;;5056140;28;20410;-86
2021/09/03 02:44:57;;;;;;;4.40;4.10;;;21.50;52.40;;;;;;5055992;28;20029;-86
2021/09/03 02:47:23;;;;;;;3.80;3.60;;;21.50;52.50;;;;;;5038229;28;20375;-85
2021/09/03 02:49:49;;;;;;;4.28;4.07;;;21.40;52.50;;;;;;5056460;28;20028;-86
2021/09/03 02:52:16;;;;;;;4.47;4.28;;;21.40;52.50;;;;;;5052929;28;20466;-86
2021/09/03 02:54:42;;;;;;;4.80;4.50;;;21.40;52.50;;;;;;5052973;28;20029;-85
2021/09/03 02:57:08;;;;;;;4.63;4.43;;;21.30;52.60;;;;;;5056605;28;20076;-85
2021/09/03 02:59:34;;;;;;;4.90;4.57;;;21.40;52.60;;;;;;5056300;28;20037;-85
2021/09/03 03:02:00;;;;;;;3.83;3.63;;;21.40;52.70;;;;;;5054462;28;20040;-86
2021/09/03 03:04:26;;;;;;;4.63;4.40;;;21.40;52.70;;;;;;5055646;28;20028;-86
2021/09/03 03:06:52;;;;;;;4.53;4.32;;;21.30;52.60;;;;;;5051177;28;20033;-84
2021/09/03 03:09:18;;;;;;;5.55;4.68;;;21.30;52.70;;;;;;5057706;28;20025;-83
2021/09/03 03:11:44;;;;;;;4.88;4.57;;;21.30;52.80;;;;;;5055944;28;20029;-85
2021/09/03 03:14:15;;;;;;;4.43;4.22;;;21.30;52.90;;;;;;5051615;28;20029;-86
2021/09/03 03:16:41;;;;;;;4.15;3.95;;;21.30;52.90;;;;;;5055572;28;20063;-86
2021/09/03 03:19:07;;;;;;;4.60;4.30;;;21.30;52.90;;;;;;5051029;28;20029;-85
2021/09/03 03:21:33;;;;;;;4.85;4.65;;;21.20;52.90;;;;;;5054743;28;20386;-85
2021/09/03 03:23:59;;;;;;;5.20;4.80;;;21.20;53.00;;;;;;5056074;28;20037;-85
2021/09/03 03:26:25;;;;;;;4.82;4.43;;;21.20;53.00;;;;;;5054584;28;20021;-85
2021/09/03 03:28:51;;;;;;;4.75;4.45;;;21.20;53.10;;;;;;5055771;28;20039;-86
2021/09/03 03:31:17;;;;;;;5.53;5.00;;;21.20;53.10;;;;;;5053351;28;20501;-85
2021/09/03 03:33:43;;;;;;;5.05;4.75;;;21.20;53.10;;;;;;5053158;28;20045;-85
2021/09/03 03:36:10;;;;;;;4.90;4.60;;;21.10;53.10;;;;;;5054368;28;20386;-85
2021/09/03 03:38:36;;;;;;;5.65;5.03;;;21.10;53.20;;;;;;5054285;28;20028;-86
2021/09/03 03:41:02;;;;;;;4.82;4.20;;;21.10;53.20;;;;;;5055548;28;20025;-85
2021/09/03 03:43:28;;;;;;;4.38;4.18;;;21.10;53.20;;;;;;5054962;28;20029;-85
2021/09/03 03:45:55;;;;;;;4.82;4.60;;;21.10;53.20;;;;;;5051108;28;20032;-85
2021/09/03 03:48:23;;;;;;;4.78;4.57;;;21.10;53.20;;;;;;5057338;28;20032;-84
2021/09/03 03:50:49;;;;;;;5.15;4.90;;;21.10;53.20;;;;;;5054956;28;20029;-86
2021/09/03 03:53:15;;;;;;;4.57;4.38;;;21.10;53.20;;;;;;5052752;28;20029;-85
2021/09/03 03:55:41;;;;;;;4.95;4.65;;;21.10;53.20;;;;;;5054043;28;20390;-83
2021/09/03 03:58:07;;;;;;;4.72;4.50;;;21.10;53.20;;;;;;5049174;28;20025;-85
2021/09/03 04:00:33;;;;;;;4.65;4.43;;;21.10;53.30;;;;;;5054995;28;20486;-86
2021/09/03 04:02:59;;;;;;;4.90;4.60;;;21.10;53.40;;;;;;5055666;28;20060;-85
2021/09/03 04:05:25;;;;;;;4.53;4.32;;;21.00;53.50;;;;;;5053523;28;20477;-86
2021/09/03 04:07:51;;;;;;;4.72;4.53;;;21.00;53.50;;;;;;5053925;28;20036;-85
2021/09/03 04:10:18;;;;;;;4.68;4.30;;;21.00;53.50;;;;;;5053147;28;20496;-85
2021/09/03 04:12:44;;;;;;;4.72;4.53;;;21.00;53.50;;;;;;5052402;28;20033;-86
2021/09/03 04:15:10;;;;;;;5.10;4.80;;;21.00;53.60;;;;;;5056430;28;20025;-85
2021/09/03 04:17:37;;;;;;;4.80;4.60;;;21.00;53.60;;;;;;5053774;28;20032;-85
2021/09/03 04:20:03;;;;;;;5.13;4.75;;;21.00;53.60;;;;;;5054561;28;20473;-85
2021/09/03 04:22:29;;;;;;;6.22;4.30;;;20.90;53.60;;;;;;5053302;28;20033;-85
2021/09/03 04:24:56;;;;;;;5.18;4.88;;;20.90;53.60;;;;;;5050690;28;20374;-85
2021/09/03 04:27:22;;;;;;;4.32;4.13;;;20.90;53.70;;;;;;5056835;28;20024;-84
2021/09/03 04:29:48;;;;;;;4.95;4.65;;;20.90;53.70;;;;;;5037141;28;20025;-86
2021/09/03 04:32:14;;;;;;;4.90;4.60;;;20.90;53.70;;;;;;5051704;28;20029;-85
2021/09/03 04:34:40;;;;;;;5.30;4.90;;;20.90;53.70;;;;;;5054268;28;20063;-85
2021/09/03 04:37:06;;;;;;;5.22;5.03;;;20.90;53.70;;;;;;5049658;28;20386;-86
2021/09/03 04:39:33;;;;;;;4.88;4.68;;;20.90;53.80;;;;;;5053880;28;20017;-86
2021/09/03 04:41:59;;;;;;;4.85;4.55;;;20.80;53.90;;;;;;5055174;28;20044;-85
2021/09/03 04:44:25;;;;;;;4.75;4.50;;;20.80;54.20;;;;;;5054885;28;20390;-86
2021/09/03 04:46:51;;;;;;;5.00;4.70;;;20.70;54.40;;;;;;5054149;28;20033;-86
2021/09/03 04:49:17;;;;;;;4.60;3.92;;;20.60;54.50;;;;;;5056351;28;20055;-87
2021/09/03 04:51:43;;;;;;;8.90;5.00;;;20.60;54.60;;;;;;5055221;28;20025;-86
2021/09/03 04:54:09;;;;;;;4.70;4.47;;;20.60;54.70;;;;;;5092973;28;20442;-86
2021/09/03 04:56:36;;;;;;;4.88;4.57;;;20.60;55.40;;;;;;5058455;28;20040;-86
2021/09/03 04:59:02;;;;;;;4.53;4.30;;;20.60;54.80;;;;;;5058515;28;20073;-85
2021/09/03 05:01:28;;;;;;;5.10;4.43;;;20.60;54.90;;;;;;5057527;28;20029;-86
2021/09/03 05:03:54;;;;;;;5.10;4.85;;;20.60;55.00;;;;;;5053302;28;20033;-85
2021/09/03 05:06:20;;;;;;;5.13;4.78;;;20.50;55.10;;;;;;5060325;28;20037;-85
2021/09/03 05:08:46;;;;;;;5.05;4.65;;;20.50;55.40;;;;;;5058398;28;20029;-85
2021/09/03 05:11:12;;;;;;;4.22;4.03;;;20.40;55.40;;;;;;5056946;28;20029;-86
2021/09/03 05:13:38;;;;;;;5.07;4.10;;;20.40;55.60;;;;;;5058316;28;20029;-84
2021/09/03 05:16:04;;;;;;;3.90;3.70;;;20.30;55.60;;;;;;5052499;28;20044;-86
2021/09/03 05:18:30;;;;;;;4.32;4.13;;;20.30;55.80;;;;;;5057976;28;20104;-86
2021/09/03 05:20:57;;;;;;;4.35;4.15;;;20.30;55.80;;;;;;5057362;28;20035;-85
2021/09/03 05:23:23;;;;;;;4.35;4.15;;;20.30;55.90;;;;;;5025107;28;20517;-84
2021/09/03 05:25:49;;;;;;;4.72;4.35;;;20.20;55.90;;;;;;5065808;28;20036;-86
2021/09/03 05:28:15;;;;;;;4.63;4.30;;;20.20;56.00;;;;;;5054474;28;20036;-85
2021/09/03 05:30:41;;;;;;;4.88;4.43;;;20.20;56.00;;;;;;5054837;28;20025;-85
2021/09/03 05:33:07;;;;;;;4.20;4.00;;;20.20;56.10;;;;;;5091573;28;20032;-85
2021/09/03 05:35:33;;;;;;;4.45;4.25;;;20.20;56.00;;;;;;5041265;28;20052;-85
2021/09/03 05:38:04;;;;;;;4.22;3.92;;;20.20;56.00;;;;;;5058101;28;20063;-84
2021/09/03 05:40:32;;;;;;;4.70;4.35;;;20.20;56.10;;;;;;5057809;28;20048;-85
2021/09/03 05:42:58;;;;;;;4.03;3.83;;;20.20;56.10;;;;;;5037653;28;20053;-85
2021/09/03 05:45:24;;;;;;;5.13;4.72;;;20.20;56.10;;;;;;5057994;28;20028;-85
2021/09/03 05:47:50;;;;;;;3.97;3.72;;;20.20;56.20;;;;;;5056336;28;20486;-85
2021/09/03 05:50:17;;;;;;;5.43;4.50;;;20.20;56.20;;;;;;5055107;28;20048;-85
2021/09/03 05:52:43;;;;;;;4.45;4.05;;;20.20;56.20;;;;;;5057595;28;20024;-84
2021/09/03 05:55:09;;;;;;;4.05;3.85;;;20.20;56.20;;;;;;5053021;28;20406;-85
2021/09/03 05:57:35;;;;;;;4.38;4.18;;;20.20;56.20;;;;;;5057487;28;20480;-84
2021/09/03 06:00:02;;;;;;;3.97;3.78;;;20.20;56.20;;;;;;5057390;28;20040;-85
2021/09/03 06:02:28;;;;;;;4.40;4.10;;;20.20;56.20;;;;;;5021990;28;20056;-85
2021/09/03 06:04:54;;;;;;;3.90;3.70;;;20.20;56.30;;;;;;5057418;28;20040;-86
2021/09/03 06:07:20;;;;;;;4.28;4.07;;;20.20;56.40;;;;;;5055724;28;20029;-85
2021/09/03 06:09:46;;;;;;;4.38;4.18;;;20.20;56.40;;;;;;5053256;28;20036;-85
2021/09/03 06:12:12;;;;;;;4.25;3.97;;;20.20;56.50;;;;;;5059071;28;20481;-84
2021/09/03 06:14:38;;;;;;;4.40;4.20;;;20.20;56.40;;;;;;5057229;28;20033;-85
2021/09/03 06:17:04;;;;;;;4.60;4.40;;;20.10;56.50;;;;;;5056426;28;20501;-85
2021/09/03 06:19:30;;;;;;;5.40;5.00;;;20.10;56.50;;;;;;5056973;28;20032;-85
2021/09/03 06:22:00;;;;;;;5.55;5.15;;;20.10;56.50;;;;;;5035122;28;20049;-85
2021/09/03 06:26:57;;;;;;;4.45;4.25;;;20.20;56.70;;;;;;5057170;28;20397;-85
2021/09/03 06:29:37;;;;;;;4.38;4.18;;;20.20;56.70;;;;;;5055482;28;20040;-85
2021/09/03 06:32:24;;;;;;;4.47;4.28;;;20.10;56.80;;;;;;5040275;28;20040;-85
2021/09/03 06:34:55;;;;;;;5.32;4.70;;;20.10;57.00;;;;;;5053906;28;20397;-85
2021/09/03 06:37:22;;;;;;;5.50;5.13;;;20.00;57.00;;;;;;5055251;28;20031;-85
2021/09/03 06:39:48;;;;;;;4.95;4.65;;;20.00;57.70;;;;;;5036044;28;20029;-85
2021/09/03 06:42:15;;;;;;;4.40;4.20;;;20.00;57.20;;;;;;5057373;28;20044;-85
2021/09/03 06:44:41;;;;;;;3.75;3.55;;;20.00;57.30;;;;;;5056353;28;20037;-85
2021/09/03 06:47:08;;;;;;;4.50;4.30;;;19.90;57.20;;;;;;5054945;28;20037;-86
2021/09/03 06:49:34;;;;;;;4.72;4.43;;;19.90;57.30;;;;;;5056440;28;20037;-85
2021/09/03 06:52:03;;;;;;;4.82;4.43;;;19.90;58.00;;;;;;5034579;28;20030;-84
2021/09/03 06:54:31;;;;;;;4.45;4.10;;;19.90;57.50;;;;;;5064973;28;20016;-84
2021/09/03 06:56:58;;;;;;;4.00;3.80;;;19.90;57.60;;;;;;5056745;28;20478;-85
2021/09/03 06:59:24;;;;;;;5.22;4.82;;;19.90;57.50;;;;;;5054754;28;20382;-84
2021/09/03 07:01:50;;;;;;;4.35;4.15;;;19.90;57.60;;;;;;5055588;28;20032;-84
2021/09/03 07:04:16;;;;;;;4.38;4.18;;;19.90;57.70;;;;;;5052745;28;20037;-84
2021/09/03 07:06:42;;;;;;;4.68;4.32;;;19.90;57.80;;;;;;5053655;28;20029;-85
2021/09/03 07:09:08;;;;;;;4.13;3.92;;;19.90;57.90;;;;;;5054649;28;20040;-84
2021/09/03 07:11:34;;;;;;;4.60;4.30;;;19.80;58.00;;;;;;5055132;28;20044;-84
2021/09/03 07:14:01;;;;;;;5.05;4.78;;;19.90;58.10;;;;;;5054174;28;20187;-85
2021/09/03 07:16:27;;;;;;;6.35;4.53;;;19.90;58.20;;;;;;5053643;28;20036;-85
2021/09/03 07:18:53;;;;;;;4.93;4.53;;;19.80;58.30;;;;;;5051012;28;20032;-84
2021/09/03 07:21:19;;;;;;;4.20;4.00;;;19.80;58.40;;;;;;5056628;28;20036;-83
2021/09/03 07:23:45;;;;;;;4.78;4.47;;;19.80;58.50;;;;;;5055891;28;20041;-85
2021/09/03 07:26:12;;;;;;;4.65;4.38;;;19.80;58.60;;;;;;5055796;28;20036;-86
2021/09/03 07:28:38;;;;;;;5.00;4.65;;;19.80;58.60;;;;;;5054254;28;20039;-84
2021/09/03 07:31:04;;;;;;;4.38;4.13;;;19.80;58.60;;;;;;5033588;28;20471;-84
2021/09/03 07:33:30;;;;;;;4.88;4.57;;;19.80;58.70;;;;;;5056690;28;20040;-84
2021/09/03 07:35:56;;;;;;;4.30;4.03;;;19.90;58.80;;;;;;5055822;28;20063;-85
2021/09/03 07:38:22;;;;;;;4.63;4.28;;;19.90;58.90;;;;;;5055439;28;20025;-85
2021/09/03 07:40:48;;;;;;;5.30;4.90;;;19.90;59.00;;;;;;5054320;28;20032;-85
2021/09/03 07:43:15;;;;;;;5.20;4.78;;;19.80;59.00;;;;;;5052968;28;20048;-84
2021/09/03 07:45:42;;;;;;;4.63;4.40;;;19.90;58.90;;;;;;5052590;28;20048;-85
2021/09/03 07:48:08;;;;;;;4.20;4.00;;;20.00;58.90;;;;;;5053873;28;20040;-84
2021/09/03 07:50:34;;;;;;;4.55;4.25;;;20.00;58.90;;;;;;5037652;28;20029;-84
2021/09/03 07:53:01;;;;;;;4.13;3.92;;;20.00;58.90;;;;;;5053775;28;20025;-84
2021/09/03 07:55:27;;;;;;;4.53;4.13;;;20.10;59.00;;;;;;5054649;28;20381;-84
2021/09/03 07:57:53;;;;;;;4.25;4.05;;;20.10;58.90;;;;;;5050075;28;20033;-85
2021/09/03 08:00:19;;;;;;;4.32;4.13;;;20.20;58.90;;;;;;5056746;28;20035;-85
2021/09/03 08:02:45;;;;;;;4.65;4.35;;;20.20;59.00;;;;;;5053856;28;20024;-85
2021/09/03 08:05:12;;;;;;;5.07;4.68;;;20.20;59.00;;;;;;5055134;28;20036;-85
2021/09/03 08:07:41;;;;;;;3.72;3.53;;;20.30;58.90;;;;;;5022650;28;20028;-85
2021/09/03 08:10:11;;;;;;;5.28;4.97;;;20.30;58.80;;;;;;5051832;28;20041;-84
2021/09/03 08:12:38;;;;;;;5.25;4.93;;;20.40;58.70;;;;;;5036622;28;20037;-84
2021/09/03 08:15:05;;;;;;;4.38;4.07;;;20.50;58.50;;;;;;5055519;28;20037;-85
2021/09/03 08:17:31;;;;;;;5.13;4.72;;;20.70;58.40;;;;;;5037651;28;20029;-85
2021/09/03 08:19:57;;;;;;;4.15;3.95;;;20.80;58.30;;;;;;5055162;28;20039;-85
2021/09/03 08:22:23;;;;;;;4.47;4.28;;;20.80;58.10;;;;;;5035702;28;20032;-85
2021/09/03 08:24:49;;;;;;;4.35;4.10;;;20.90;58.20;;;;;;5051789;28;20040;-84
2021/09/03 08:27:16;;;;;;;4.68;4.40;;;20.90;58.30;;;;;;5087560;28;20029;-85
2021/09/03 08:29:43;;;;;;;4.82;4.57;;;20.90;58.30;;;;;;5053529;28;20033;-85
2021/09/03 08:32:10;;;;;;;5.78;4.30;;;20.90;58.30;;;;;;5052756;28;20033;-84
2021/09/03 08:34:36;;;;;;;6.13;5.35;;;21.00;58.20;;;;;;5054699;28;20059;-85
2021/09/03 08:37:02;;;;;;;4.30;4.10;;;21.00;58.20;;;;;;5050473;28;20037;-86
2021/09/03 08:39:28;;;;;;;4.90;4.70;;;21.10;58.10;;;;;;5056545;28;20386;-85
2021/09/03 08:41:54;;;;;;;6.38;5.97;;;21.10;58.10;;;;;;5054417;28;20025;-85
2021/09/03 08:44:20;;;;;;;5.63;5.32;;;21.20;57.90;;;;;;5053209;28;20075;-85
2021/09/03 08:46:47;;;;;;;5.63;5.32;;;21.30;57.90;;;;;;5054166;28;20043;-85
2021/09/03 08:49:13;;;;;;;5.30;5.00;;;21.40;57.80;;;;;;5034288;28;20033;-84
2021/09/03 08:51:39;;;;;;;6.05;5.75;;;21.50;57.70;;;;;;5052441;28;20060;-84
2021/09/03 08:54:05;;;;;;;5.22;4.93;;;21.50;57.60;;;;;;5088050;28;20028;-85
2021/09/03 08:56:32;;;;;;;8.27;5.30;;;21.60;57.50;;;;;;5054231;28;20398;-85
2021/09/03 08:58:58;;;;;;;5.50;5.20;;;21.70;57.50;;;;;;5039024;28;20033;-85
2021/09/03 09:01:24;;;;;;;8.40;5.90;;;21.80;57.40;;;;;;5051712;28;20036;-85
2021/09/03 09:03:51;;;;;;;6.38;6.07;;;22.00;57.30;;;;;;5051534;28;20425;-86
2021/09/03 09:06:22;;;;;;;6.20;5.90;;;22.00;57.10;;;;;;5087231;28;20036;-85
2021/09/03 09:09:03;;;;;;;7.05;6.45;;;22.10;57.00;;;;;;5054357;28;20385;-84
2021/09/03 09:11:30;;;;;;;5.93;5.63;;;22.10;57.00;;;;;;5052998;28;20035;-85
2021/09/03 09:14:02;;;;;;;6.60;6.28;;;22.20;56.90;;;;;;5053063;28;20043;-85
2021/09/03 09:16:32;;;;;;;6.97;6.57;;;22.30;56.90;;;;;;5052173;28;20485;-85
2021/09/03 09:18:59;;;;;;;6.00;5.70;;;22.30;56.80;;;;;;5048730;28;20038;-85
2021/09/03 09:21:29;;;;;;;5.30;5.00;;;22.40;56.80;;;;;;5055272;28;20029;-85
2021/09/03 09:24:11;;;;;;;6.40;6.00;;;22.50;56.70;;;;;;5053020;28;20429;-85
2021/09/03 09:26:47;;;;;;;6.15;5.85;;;22.40;56.80;;;;;;5053171;28;20470;-85
2021/09/03 09:29:16;;;;;;;7.50;7.10;;;22.40;56.60;;;;;;5054265;28;20021;-87
2021/09/03 09:31:43;;;;;;;6.32;6.03;;;22.40;56.70;;;;;;5053779;28;20032;-84
2021/09/03 09:34:20;;;;;;;6.32;6.03;;;22.50;56.70;;;;;;5049659;28;20052;-85
2021/09/03 09:36:47;;;;;;;6.88;6.20;;;22.60;56.60;;;;;;5055194;28;20025;-85
2021/09/03 09:39:13;;;;;;;5.70;5.40;;;22.60;56.50;;;;;;5059610;28;20048;-85
2021/09/03 09:41:39;;;;;;;5.72;5.43;;;22.60;56.40;;;;;;5056696;28;20040;-85
2021/09/03 09:44:05;;;;;;;6.18;5.78;;;22.70;57.00;;;;;;5056187;28;20037;-85
2021/09/03 09:46:31;;;;;;;6.25;5.82;;;22.70;56.40;;;;;;5055883;28;20043;-85
2021/09/03 09:49:03;;;;;;;6.07;5.78;;;22.70;56.40;;;;;;5051176;28;20052;-86
2021/09/03 09:51:30;;;;;;;5.65;5.35;;;22.80;56.30;;;;;;5098962;28;20025;-85
2021/09/03 09:54:00;;;;;;;6.80;6.40;;;22.90;56.20;;;;;;5056295;28;20037;-85
2021/09/03 09:56:27;;;;;;;7.80;7.40;;;23.00;56.10;;;;;;5057484;28;20371;-85
2021/09/03 09:58:54;;;;;;;6.72;6.43;;;23.20;55.90;;;;;;5057612;28;21566;-86
2021/09/03 10:01:20;;;;;;;7.03;6.70;;;23.50;55.60;;;;;;5053980;28;20045;-84
2021/09/03 10:03:47;;;;;;;8.23;7.55;;;23.80;55.20;;;;;;5053299;28;20048;-85
2021/09/03 10:06:16;;;;;;;7.32;6.93;;;24.10;54.80;;;;;;5059436;28;20033;-86
2021/09/03 10:08:42;;;;;;;7.30;6.80;;;24.40;54.40;;;;;;5055794;28;20028;-85
2021/09/03 10:11:08;;;;;;;6.72;6.43;;;24.60;54.10;;;;;;5056115;28;20021;-85
2021/09/03 10:13:34;;;;;;;7.50;7.10;;;24.70;53.90;;;;;;5057233;28;20482;-86
2021/09/03 10:16:00;;;;;;;7.97;7.57;;;24.90;53.70;;;;;;5051177;28;20029;-85
2021/09/03 10:18:27;;;;;;;10.00;9.40;;;25.30;53.50;;;;;;5066087;28;20462;-86
2021/09/03 10:20:53;;;;;;;10.27;9.77;;;25.70;53.10;;;;;;5039480;28;20033;-86
2021/09/03 10:23:47;;;;;;;11.43;10.82;;;25.90;52.60;;;;;;5054025;28;20037;-85
2021/09/03 10:26:13;;;;;;;10.23;9.73;;;26.10;52.30;;;;;;5057046;28;20024;-86
2021/09/03 10:28:39;;;;;;;10.13;9.55;;;26.20;52.10;;;;;;5054285;28;20028;-85
2021/09/03 10:31:06;;;;;;;11.45;10.65;;;26.30;52.00;;;;;;5051399;28;20051;-86
2021/09/03 10:33:38;;;;;;;13.05;12.40;;;26.50;51.90;;;;;;5039781;28;20043;-86
2021/09/03 10:36:04;;;;;;;15.35;14.63;;;26.70;51.70;;;;;;5056590;28;20037;-86
2021/09/03 10:38:32;;;;;;;15.65;14.82;;;27.00;51.40;;;;;;5056713;28;20032;-85
2021/09/03 10:40:59;;;;;;;15.23;14.43;;;27.20;51.10;;;;;;5055508;28;20048;-86
2021/09/03 10:43:45;;;;;;;14.73;13.93;;;27.10;51.00;;;;;;5054451;28;20043;-86
2021/09/03 10:46:15;;;;;;;14.30;13.50;;;27.20;51.10;;;;;;5018240;28;20033;-86
2021/09/03 10:48:48;;;;;;;13.55;12.90;;;27.30;51.00;;;;;;5054120;28;20025;-86
2021/09/03 10:51:16;;;;;;;13.73;13.02;;;27.40;50.70;;;;;;5056384;28;20393;-86
2021/09/03 10:53:43;;;;;;;13.70;13.00;;;27.40;50.60;;;;;;5038757;28;20025;-86
2021/09/03 10:56:14;;;;;;;14.05;13.45;;;27.40;50.60;;;;;;5055100;28;20052;-86
2021/09/03 10:58:53;;;;;;;13.90;13.05;;;27.40;50.60;;;;;;5038926;28;20035;-86
2021/09/03 11:01:25;;;;;;;14.73;14.02;;;27.50;50.50;;;;;;5052800;28;20375;-84
2021/09/03 11:03:58;;;;;;;14.25;13.55;;;27.50;50.50;;;;;;5052682;28;20064;-86
2021/09/03 11:06:33;;;;;;;15.55;14.65;;;27.50;50.40;;;;;;5057670;28;20036;-86
2021/09/03 11:09:15;;;;;;;14.57;13.88;;;27.50;50.30;;;;;;5055233;28;20037;-86
2021/09/03 11:11:42;;;;;;;13.77;13.18;;;27.60;50.80;;;;;;5054938;28;20029;-85
2021/09/03 11:14:10;;;;;;;13.68;12.98;;;27.70;50.10;;;;;;5054832;28;20028;-85
2021/09/03 11:16:45;;;;;;;14.57;13.88;;;27.70;49.80;;;;;;5054307;28;20099;-86
2021/09/03 11:19:19;;;;;;;14.70;14.00;;;27.70;49.80;;;;;;5052924;28;20033;-86
2021/09/03 11:21:55;;;;;;;13.77;12.98;;;27.80;49.70;;;;;;5036294;28;20048;-85
2021/09/03 11:24:23;;;;;;;13.07;12.32;;;27.90;49.60;;;;;;5088989;28;20049;-86
2021/09/03 11:26:50;;;;;;;13.10;12.40;;;27.90;49.30;;;;;;5055593;28;20036;-85
2021/09/03 11:29:21;;;;;;;13.07;12.45;;;27.90;49.30;;;;;;5054674;28;20032;-86
2021/09/03 11:32:05;;;;;;;12.73;12.13;;;27.90;49.20;;;;;;5055403;28;20025;-86
2021/09/03 11:34:47;;;;;;;13.85;13.23;;;27.80;49.20;;;;;;5055381;28;20048;-86
2021/09/03 11:37:17;;;;;;;12.63;12.02;;;28.00;49.10;;;;;;5038975;28;20029;-85
2021/09/03 11:39:43;;;;;;;12.35;11.75;;;28.20;48.90;;;;;;5054519;28;20397;-84
2021/09/03 11:42:20;;;;;;;11.93;11.32;;;28.40;48.50;;;;;;5053979;28;20052;-86
2021/09/03 11:44:57;;;;;;;10.57;10.07;;;28.60;48.40;;;;;;5053997;28;20040;-85
2021/09/03 11:47:35;;;;;;;11.27;10.77;;;28.60;48.20;;;;;;5052322;28;20029;-86
2021/09/03 11:50:02;;;;;;;10.35;9.75;;;28.70;48.10;;;;;;5037829;28;20033;-85
2021/09/03 11:52:30;;;;;;;10.80;10.30;;;28.80;48.00;;;;;;5053569;28;20393;-86
2021/09/03 11:54:56;;;;;;;10.77;10.27;;;28.80;47.90;;;;;;5051393;28;20025;-85
2021/09/03 11:57:22;;;;;;;10.60;10.05;;;28.90;47.60;;;;;;5055437;28;20493;-85
2021/09/03 11:59:56;;;;;;;9.95;9.45;;;28.80;47.50;;;;;;5039031;28;20055;-86
2021/09/03 12:02:23;;;;;;;10.77;10.10;;;28.80;47.50;;;;;;5037057;28;20033;-86
2021/09/03 12:04:49;;;;;;;10.43;9.88;;;28.80;47.60;;;;;;5037109;28;20056;-86
2021/09/03 12:07:18;;;;;;;10.73;10.23;;;28.80;47.40;;;;;;5035030;28;20389;-86
2021/09/03 12:09:45;;;;;;;12.38;11.77;;;29.10;47.40;;;;;;5052853;28;20470;-85
2021/09/03 12:12:11;;;;;;;11.93;11.32;;;29.30;47.10;;;;;;5055185;28;20033;-85
2021/09/03 12:14:37;;;;;;;13.13;12.52;;;29.40;46.80;;;;;;5054942;28;20269;-86
2021/09/03 12:17:03;;;;;;;13.38;12.63;;;29.60;46.70;;;;;;5053304;28;20056;-86
2021/09/03 12:19:29;;;;;;;13.52;12.82;;;29.90;46.40;;;;;;5052800;28;20033;-86
2021/09/03 12:21:55;;;;;;;12.90;12.02;;;30.00;46.80;;;;;;5049829;28;20021;-86
2021/09/03 12:24:22;;;;;;;13.88;13.20;;;30.10;46.00;;;;;;5072292;28;20044;-85
2021/09/03 12:26:50;;;;;;;14.40;13.75;;;30.30;45.90;;;;;;5053882;28;20041;-86
2021/09/03 12:29:22;;;;;;;14.77;14.07;;;30.40;45.80;;;;;;5055203;28;20052;-86
2021/09/03 12:31:53;;;;;;;15.20;14.50;;;30.40;45.70;;;;;;5053191;28;20037;-85
2021/09/03 12:34:19;;;;;;;14.18;13.48;;;30.40;45.70;;;;;;5052630;28;20063;-86
2021/09/03 12:36:45;;;;;;;14.50;13.80;;;30.40;45.70;;;;;;5034399;28;20029;-85
2021/09/03 12:39:13;;;;;;;15.10;14.40;;;30.50;45.60;;;;;;5055518;28;20044;-85
2021/09/03 12:41:40;;;;;;;14.07;13.45;;;30.50;45.40;;;;;;5054733;28;20409;-86
2021/09/03 12:44:09;;;;;;;12.13;11.52;;;30.50;45.30;;;;;;5054476;28;20359;-86
2021/09/03 12:46:45;;;;;;;12.48;11.88;;;30.40;45.30;;;;;;5036591;28;20033;-85